Time;durP1;ratioP1;P1;durP2;ratioP2;P2;SDS_P1;SDS_P2;PMS_P1;PMS_P2;Temp;Humidity;BMP_temperature;BMP_pressure;BME280_temperature;BME280_humidity;BME280_pressure;Samples;Min_cycle;Max_cycle;Signal;HPM_P1;HPM_P2
2023/04/26 00:02:22;;;;;;;11.35;3.90;;;5.00;99.90;;;;;;5052646;28;20056;-68
2023/04/26 00:04:56;;;;;;;4.85;3.20;;;4.90;99.90;;;;;;5051768;28;20067;-68
2023/04/26 00:07:27;;;;;;;9.52;3.88;;;4.90;99.90;;;;;;5052687;28;20046;-70
2023/04/26 00:09:53;;;;;;;10.60;3.38;;;4.90;99.90;;;;;;5052759;28;20092;-68
2023/04/26 00:12:20;;;;;;;11.05;3.55;;;4.80;99.90;;;;;;5052552;28;20048;-68
2023/04/26 00:14:46;;;;;;;6.10;3.67;;;5.00;99.90;;;;;;5050707;28;20102;-68
2023/04/26 00:17:12;;;;;;;11.52;4.65;;;4.80;99.90;;;;;;5052620;28;20096;-68
2023/04/26 00:19:38;;;;;;;7.88;3.58;;;4.70;99.90;;;;;;5052607;28;20470;-68
2023/04/26 00:22:04;;;;;;;11.27;3.65;;;4.70;99.90;;;;;;5052698;28;20084;-68
2023/04/26 00:24:31;;;;;;;7.97;3.00;;;4.60;99.90;;;;;;5052320;28;20059;-68
2023/04/26 00:26:57;;;;;;;6.70;3.30;;;5.00;99.90;;;;;;5051206;28;20500;-68
2023/04/26 00:29:23;;;;;;;5.60;3.33;;;4.80;99.90;;;;;;5052375;28;20120;-68
2023/04/26 00:31:49;;;;;;;4.70;2.80;;;4.60;99.90;;;;;;5052409;28;20057;-68
2023/04/26 00:34:15;;;;;;;8.55;3.90;;;4.70;99.90;;;;;;5052472;28;20462;-68
2023/04/26 00:36:41;;;;;;;5.20;2.97;;;4.80;99.90;;;;;;5052409;28;20045;-69
2023/04/26 00:39:07;;;;;;;9.30;3.58;;;4.70;99.90;;;;;;5052366;28;20044;-69
2023/04/26 00:41:33;;;;;;;6.95;3.20;;;5.10;99.90;;;;;;5052302;28;20045;-69
2023/04/26 00:43:59;;;;;;;7.25;3.25;;;4.60;99.90;;;;;;5052310;28;20056;-69
2023/04/26 00:46:25;;;;;;;4.97;3.53;;;4.60;99.90;;;;;;5052247;28;20052;-69
2023/04/26 00:48:51;;;;;;;4.95;2.92;;;4.60;99.90;;;;;;5051578;28;20045;-69
2023/04/26 00:51:16;;;;;;;7.88;4.38;;;4.60;99.90;;;;;;5035410;28;20041;-69
2023/04/26 00:53:42;;;;;;;3.60;3.22;;;4.70;99.90;;;;;;5052107;28;20072;-69
2023/04/26 00:56:09;;;;;;;5.47;3.78;;;4.70;99.90;;;;;;5051985;28;20539;-69
2023/04/26 00:58:36;;;;;;;4.90;2.80;;;4.60;99.90;;;;;;5051245;28;20103;-69
2023/04/26 01:01:02;;;;;;;4.20;3.05;;;4.60;99.90;;;;;;5052204;28;20044;-70
2023/04/26 01:03:28;;;;;;;4.82;3.22;;;5.00;99.90;;;;;;5052457;28;20056;-68
2023/04/26 01:05:54;;;;;;;8.98;3.55;;;4.50;99.90;;;;;;5052130;28;20056;-68
2023/04/26 01:08:22;;;;;;;5.97;3.03;;;4.50;99.90;;;;;;5050657;28;20053;-68
2023/04/26 01:10:48;;;;;;;4.38;3.17;;;4.50;99.90;;;;;;5052102;28;20056;-68
2023/04/26 01:13:15;;;;;;;8.50;3.38;;;4.50;99.90;;;;;;5052009;28;20064;-68
2023/04/26 01:15:47;;;;;;;5.25;2.97;;;4.40;99.90;;;;;;5051705;28;20554;-69
2023/04/26 01:18:13;;;;;;;5.30;3.30;;;4.60;99.90;;;;;;5052384;28;20037;-69
2023/04/26 01:20:40;;;;;;;6.18;3.53;;;4.40;99.90;;;;;;5051942;28;20057;-68
2023/04/26 01:23:07;;;;;;;6.10;3.90;;;4.30;99.90;;;;;;5051873;28;20056;-70
2023/04/26 01:25:33;;;;;;;4.97;3.92;;;4.30;99.90;;;;;;5052835;28;20044;-67
2023/04/26 01:27:59;;;;;;;4.97;2.78;;;4.60;99.90;;;;;;5056259;28;20457;-70
2023/04/26 01:30:25;;;;;;;5.85;3.33;;;4.20;99.90;;;;;;5055528;28;20051;-68
2023/04/26 01:32:50;;;;;;;3.55;2.83;;;4.20;99.90;;;;;;5055441;28;20067;-68
2023/04/26 01:35:16;;;;;;;7.55;3.25;;;4.20;99.90;;;;;;5055598;28;20052;-68
2023/04/26 01:37:42;;;;;;;6.28;2.88;;;4.20;99.90;;;;;;5055943;28;20055;-68
2023/04/26 01:40:09;;;;;;;5.47;2.95;;;5.20;99.90;;;;;;5055520;28;20045;-68
2023/04/26 01:42:35;;;;;;;5.80;3.30;;;4.20;99.90;;;;;;5087769;28;20053;-70
2023/04/26 01:45:01;;;;;;;6.13;2.85;;;4.10;99.90;;;;;;5055420;28;20056;-70
2023/04/26 01:47:26;;;;;;;5.30;3.53;;;4.10;99.90;;;;;;5055391;28;20037;-68
2023/04/26 01:49:52;;;;;;;6.13;3.22;;;4.00;99.90;;;;;;5055380;28;20531;-70
2023/04/26 01:52:18;;;;;;;5.05;3.50;;;4.00;99.90;;;;;;5055588;28;20045;-68
2023/04/26 01:54:43;;;;;;;10.55;3.50;;;4.00;99.90;;;;;;5055595;28;20049;-68
2023/04/26 01:57:09;;;;;;;5.40;3.08;;;4.00;99.90;;;;;;5055523;28;20174;-69
2023/04/26 01:59:35;;;;;;;5.05;3.33;;;4.00;99.90;;;;;;5055336;28;20048;-69
2023/04/26 02:02:01;;;;;;;5.75;3.08;;;3.90;99.90;;;;;;5054307;28;20048;-69
2023/04/26 02:04:27;;;;;;;7.65;3.20;;;3.90;99.90;;;;;;5055069;28;20045;-69
2023/04/26 02:06:52;;;;;;;9.13;3.45;;;4.00;99.90;;;;;;5055049;28;20076;-69
2023/04/26 02:09:18;;;;;;;8.20;3.53;;;4.00;99.90;;;;;;5055053;28;20451;-69
2023/04/26 02:11:44;;;;;;;10.20;3.55;;;4.00;99.90;;;;;;5054331;28;20053;-69
2023/04/26 02:14:10;;;;;;;6.00;3.58;;;4.00;99.90;;;;;;5054793;28;20041;-69
2023/04/26 02:16:36;;;;;;;6.78;2.92;;;4.00;99.90;;;;;;5054892;28;20466;-68
2023/04/26 02:19:04;;;;;;;8.57;3.25;;;3.90;99.90;;;;;;5054889;28;20084;-69
2023/04/26 02:21:29;;;;;;;5.43;3.00;;;3.90;99.90;;;;;;5055371;28;20174;-69
2023/04/26 02:23:56;;;;;;;4.85;2.63;;;3.90;99.90;;;;;;5054792;28;20502;-68
2023/04/26 02:26:22;;;;;;;3.55;2.75;;;3.90;99.90;;;;;;5037812;28;20048;-69
2023/04/26 02:28:47;;;;;;;8.95;2.70;;;3.90;99.90;;;;;;5054621;28;20045;-69
2023/04/26 02:31:13;;;;;;;6.63;2.78;;;3.90;99.90;;;;;;5069717;28;20068;-69
2023/04/26 02:33:42;;;;;;;10.55;2.97;;;4.00;99.90;;;;;;5055098;28;20056;-69
2023/04/26 02:36:08;;;;;;;7.07;3.30;;;3.80;99.90;;;;;;5054093;28;20485;-69
2023/04/26 02:38:35;;;;;;;5.25;2.90;;;3.70;99.90;;;;;;5052936;28;20152;-69
2023/04/26 02:41:02;;;;;;;7.28;3.58;;;3.70;99.90;;;;;;5054431;28;20045;-69
2023/04/26 02:43:28;;;;;;;7.30;3.00;;;3.90;99.90;;;;;;5054361;28;20053;-69
2023/04/26 02:45:54;;;;;;;5.55;2.65;;;3.60;99.90;;;;;;5054325;28;20098;-68
2023/04/26 02:48:19;;;;;;;7.43;2.97;;;4.10;99.90;;;;;;5054407;28;20049;-68
2023/04/26 02:50:46;;;;;;;3.92;3.30;;;3.70;99.90;;;;;;5054175;28;20037;-69
2023/04/26 02:53:12;;;;;;;7.38;3.72;;;3.50;99.90;;;;;;5054417;28;20057;-69
2023/04/26 02:55:38;;;;;;;4.82;3.30;;;3.60;99.90;;;;;;5054193;28;20076;-69
2023/04/26 02:58:05;;;;;;;4.55;3.08;;;4.30;99.90;;;;;;5053275;28;20049;-69
2023/04/26 03:00:32;;;;;;;10.60;3.63;;;3.50;99.90;;;;;;5054113;28;20106;-69
2023/04/26 03:02:58;;;;;;;6.43;2.60;;;3.40;99.90;;;;;;5053010;28;20056;-69
2023/04/26 03:05:24;;;;;;;6.28;3.00;;;4.30;99.90;;;;;;5053906;28;20048;-69
2023/04/26 03:07:50;;;;;;;6.30;3.10;;;3.40;99.90;;;;;;5053935;28;20033;-68
2023/04/26 03:10:16;;;;;;;7.25;3.30;;;3.50;99.90;;;;;;5054462;28;20049;-69
2023/04/26 03:12:42;;;;;;;5.18;3.78;;;3.40;99.90;;;;;;5053768;28;20393;-69
2023/04/26 03:15:08;;;;;;;7.25;3.15;;;3.40;99.90;;;;;;5053751;28;20095;-69
2023/04/26 03:17:34;;;;;;;4.78;3.45;;;3.40;99.90;;;;;;5053643;28;20219;-69
2023/04/26 03:19:59;;;;;;;4.40;3.30;;;3.40;99.90;;;;;;5053661;28;20167;-68
2023/04/26 03:22:25;;;;;;;7.68;4.28;;;3.90;99.90;;;;;;5054242;28;20051;-68
2023/04/26 03:24:51;;;;;;;4.85;3.33;;;3.60;99.90;;;;;;5052382;28;20470;-69
2023/04/26 03:27:16;;;;;;;5.30;3.08;;;3.90;99.90;;;;;;5051852;28;20047;-68
2023/04/26 03:29:42;;;;;;;5.15;3.28;;;3.60;99.90;;;;;;5052915;28;20052;-68
2023/04/26 03:32:08;;;;;;;4.28;3.35;;;3.50;99.90;;;;;;5053423;28;20061;-67
2023/04/26 03:34:33;;;;;;;3.67;2.80;;;3.50;99.90;;;;;;5053593;28;20563;-69
2023/04/26 03:36:59;;;;;;;6.43;3.30;;;3.50;99.90;;;;;;5085801;28;20045;-68
2023/04/26 03:39:25;;;;;;;3.80;2.80;;;3.60;99.90;;;;;;5052235;28;20049;-68
2023/04/26 03:41:51;;;;;;;3.88;2.67;;;4.20;99.90;;;;;;5053749;28;20132;-68
2023/04/26 03:44:17;;;;;;;4.57;2.92;;;3.70;99.90;;;;;;5053252;28;20485;-68
2023/04/26 03:46:42;;;;;;;4.25;3.28;;;3.70;99.90;;;;;;5053107;28;20041;-70
2023/04/26 03:49:08;;;;;;;4.35;3.03;;;3.70;99.90;;;;;;5052517;28;20055;-69
2023/04/26 03:51:34;;;;;;;3.60;2.55;;;4.20;99.90;;;;;;5085583;28;20044;-68
2023/04/26 03:53:59;;;;;;;5.70;2.67;;;3.70;99.90;;;;;;5052921;28;20091;-69
2023/04/26 03:56:25;;;;;;;6.00;2.88;;;4.10;99.90;;;;;;5053525;28;20040;-69
2023/04/26 03:58:51;;;;;;;3.55;2.80;;;3.80;99.90;;;;;;5052605;28;20136;-69
2023/04/26 04:01:16;;;;;;;4.40;2.80;;;3.90;99.90;;;;;;5052010;28;20084;-69
2023/04/26 04:03:42;;;;;;;7.72;2.97;;;3.90;99.90;;;;;;5052870;28;20118;-69
2023/04/26 04:06:08;;;;;;;7.57;3.30;;;3.90;99.90;;;;;;5052981;28;20125;-69
2023/04/26 04:08:33;;;;;;;4.38;2.80;;;3.90;99.90;;;;;;5051502;28;20111;-69
2023/04/26 04:11:00;;;;;;;7.22;2.90;;;4.30;99.90;;;;;;5053105;28;20124;-69
2023/04/26 04:13:26;;;;;;;3.40;2.63;;;3.90;99.90;;;;;;5051892;28;20045;-69
2023/04/26 04:15:52;;;;;;;10.23;3.03;;;3.90;99.90;;;;;;5052805;28;20051;-69
2023/04/26 04:18:17;;;;;;;7.25;3.70;;;4.00;99.90;;;;;;5052634;28;20053;-68
2023/04/26 04:20:44;;;;;;;7.90;3.40;;;3.90;99.90;;;;;;5052597;28;20045;-68
2023/04/26 04:23:10;;;;;;;5.55;2.85;;;4.00;99.90;;;;;;5052610;28;20163;-69
2023/04/26 04:25:36;;;;;;;9.13;3.58;;;4.00;99.90;;;;;;5052519;28;20489;-68
2023/04/26 04:28:02;;;;;;;5.60;2.95;;;4.00;99.90;;;;;;5052851;28;20048;-70
2023/04/26 04:30:29;;;;;;;4.15;3.10;;;4.00;99.90;;;;;;5051471;28;20049;-68
2023/04/26 04:32:58;;;;;;;3.95;3.20;;;4.10;99.90;;;;;;5053136;28;20057;-70
2023/04/26 04:35:27;;;;;;;4.35;2.90;;;4.10;99.90;;;;;;5052437;28;20541;-68
2023/04/26 04:37:55;;;;;;;4.10;3.17;;;4.90;99.90;;;;;;5052240;28;20048;-69
2023/04/26 04:40:21;;;;;;;6.97;3.40;;;4.10;99.90;;;;;;5052119;28;20041;-68
2023/04/26 04:42:48;;;;;;;5.38;3.17;;;4.20;99.90;;;;;;5050990;28;20053;-68
2023/04/26 04:45:14;;;;;;;3.92;3.00;;;4.20;99.90;;;;;;5052477;28;20088;-69
2023/04/26 04:47:39;;;;;;;6.75;3.08;;;4.30;99.90;;;;;;5052368;28;20052;-69
2023/04/26 04:50:07;;;;;;;5.70;2.80;;;4.40;99.90;;;;;;5051885;28;20040;-69
2023/04/26 04:52:33;;;;;;;4.50;3.03;;;4.50;99.90;;;;;;5052272;28;20041;-68
2023/04/26 04:55:00;;;;;;;4.25;2.97;;;4.50;99.90;;;;;;5052008;28;20056;-69
2023/04/26 04:57:26;;;;;;;4.78;2.70;;;4.50;99.90;;;;;;5052289;28;20045;-69
2023/04/26 04:59:52;;;;;;;5.45;3.00;;;4.60;99.90;;;;;;5052423;28;20048;-69
2023/04/26 05:02:18;;;;;;;4.03;3.03;;;4.60;99.90;;;;;;5055992;28;20045;-69
2023/04/26 05:04:43;;;;;;;4.90;2.70;;;4.60;99.90;;;;;;5056392;28;20047;-69
2023/04/26 05:07:09;;;;;;;5.22;2.90;;;4.60;99.90;;;;;;5056270;28;20462;-69
2023/04/26 05:09:35;;;;;;;6.55;2.85;;;4.70;99.90;;;;;;5055834;28;20044;-68
2023/04/26 05:12:02;;;;;;;5.35;3.15;;;5.20;99.90;;;;;;5055887;28;20120;-68
2023/04/26 05:14:29;;;;;;;6.28;3.17;;;4.70;99.90;;;;;;5056279;28;20036;-69
2023/04/26 05:16:55;;;;;;;8.50;3.72;;;4.70;99.90;;;;;;5056051;28;20040;-68
2023/04/26 05:19:21;;;;;;;7.68;3.25;;;4.80;99.90;;;;;;5055680;28;20084;-68
2023/04/26 05:21:46;;;;;;;6.18;3.00;;;4.80;99.90;;;;;;5088861;28;20059;-68
2023/04/26 05:24:12;;;;;;;4.72;3.58;;;4.90;99.90;;;;;;5054314;28;20573;-68
2023/04/26 05:26:38;;;;;;;4.10;3.28;;;5.10;99.90;;;;;;5055868;28;20048;-68
2023/04/26 05:29:03;;;;;;;4.60;2.63;;;5.10;99.90;;;;;;5055821;28;20040;-70
2023/04/26 05:31:29;;;;;;;5.07;3.13;;;5.20;99.90;;;;;;5055337;28;20061;-69
2023/04/26 05:33:55;;;;;;;4.63;3.35;;;5.20;99.90;;;;;;5088041;28;20390;-69
2023/04/26 05:36:21;;;;;;;7.88;3.75;;;5.10;99.90;;;;;;5055320;28;20048;-69
2023/04/26 05:38:47;;;;;;;5.80;3.28;;;5.20;99.90;;;;;;5055307;28;20087;-69
2023/04/26 05:41:13;;;;;;;5.70;3.13;;;5.00;99.90;;;;;;5087828;28;20045;-69
2023/04/26 05:43:39;;;;;;;5.00;3.15;;;4.90;99.90;;;;;;5055081;28;20167;-69
2023/04/26 05:46:05;;;;;;;8.65;3.28;;;5.10;99.90;;;;;;5055681;28;20120;-69
2023/04/26 05:48:31;;;;;;;7.80;3.00;;;4.80;99.90;;;;;;5055667;28;20544;-69
2023/04/26 05:50:57;;;;;;;3.75;3.35;;;5.00;99.90;;;;;;5054926;28;20049;-69
2023/04/26 05:53:22;;;;;;;4.65;3.25;;;5.00;99.90;;;;;;5055305;28;20044;-69
2023/04/26 05:55:49;;;;;;;5.97;3.72;;;5.00;99.90;;;;;;5055120;28;20060;-69
2023/04/26 05:58:14;;;;;;;4.47;2.88;;;5.10;99.90;;;;;;5053911;28;20049;-69
2023/04/26 06:00:41;;;;;;;5.13;3.33;;;5.20;99.90;;;;;;5055306;28;20052;-69
2023/04/26 06:03:07;;;;;;;5.75;3.60;;;5.30;99.90;;;;;;5055161;28;20390;-69
2023/04/26 06:05:34;;;;;;;5.68;3.40;;;5.40;99.90;;;;;;5055071;28;20045;-69
2023/04/26 06:08:00;;;;;;;4.53;3.25;;;5.60;99.90;;;;;;5054783;28;20045;-68
2023/04/26 06:10:26;;;;;;;6.25;3.72;;;5.80;99.90;;;;;;5054528;28;20041;-69
2023/04/26 06:12:52;;;;;;;6.05;3.55;;;5.90;99.90;;;;;;5053727;28;20049;-69
2023/04/26 06:15:18;;;;;;;5.40;2.78;;;6.10;99.90;;;;;;5054831;28;20044;-69
2023/04/26 06:17:43;;;;;;;7.40;3.20;;;6.20;99.90;;;;;;5054688;28;20502;-69
2023/04/26 06:20:10;;;;;;;6.90;3.55;;;6.20;99.90;;;;;;5054766;28;20080;-69
2023/04/26 06:22:36;;;;;;;4.63;3.22;;;6.30;99.90;;;;;;5055000;28;20120;-69
2023/04/26 06:25:04;;;;;;;6.72;3.38;;;6.40;99.90;;;;;;5054946;28;20049;-69
2023/04/26 06:27:29;;;;;;;5.03;2.90;;;6.40;99.90;;;;;;5054907;28;20110;-69
2023/04/26 06:29:55;;;;;;;3.65;2.83;;;6.60;99.90;;;;;;5054551;28;20049;-69
2023/04/26 06:32:21;;;;;;;4.82;3.55;;;6.70;99.90;;;;;;5054606;28;20053;-70
2023/04/26 06:34:46;;;;;;;4.82;3.08;;;6.80;99.90;;;;;;5086702;28;20454;-69
2023/04/26 06:37:12;;;;;;;4.25;3.10;;;6.80;99.90;;;;;;5053920;28;20048;-69
2023/04/26 06:39:38;;;;;;;3.65;2.70;;;6.90;99.90;;;;;;5053014;28;20049;-69
2023/04/26 06:42:04;;;;;;;5.00;3.20;;;6.90;99.90;;;;;;5054181;28;20048;-69
2023/04/26 06:44:30;;;;;;;5.05;3.00;;;7.10;99.90;;;;;;5052839;28;20420;-69
2023/04/26 06:46:56;;;;;;;3.33;2.20;;;7.30;99.90;;;;;;5054388;28;20041;-69
2023/04/26 06:49:22;;;;;;;6.13;2.85;;;7.50;99.90;;;;;;5054014;28;20124;-69
2023/04/26 06:51:48;;;;;;;4.55;2.75;;;7.60;99.90;;;;;;5054287;28;20068;-69
2023/04/26 06:54:14;;;;;;;6.60;2.22;;;7.70;99.90;;;;;;5053798;28;20568;-69
2023/04/26 06:56:40;;;;;;;3.80;2.08;;;8.10;99.90;;;;;;5053838;28;20076;-69
2023/04/26 06:59:06;;;;;;;3.08;1.95;;;9.10;99.90;;;;;;5086148;28;20148;-69
2023/04/26 07:01:34;;;;;;;4.50;2.20;;;10.20;99.90;;;;;;5052975;28;20060;-69
2023/04/26 07:04:06;;;;;;;2.38;1.70;;;11.10;99.90;;;;;;5053827;28;20037;-70
2023/04/26 07:06:32;;;;;;;3.97;1.60;;;12.10;99.50;;;;;;5053574;28;20512;-70
2023/04/26 07:08:59;;;;;;;2.50;1.42;;;12.80;99.90;;;;;;5052749;28;20135;-67
2023/04/26 07:11:25;;;;;;;2.30;1.90;;;13.00;99.90;;;;;;5053725;28;20084;-70
2023/04/26 07:13:51;;;;;;;4.32;2.03;;;13.60;99.90;;;;;;5069265;28;20091;-70
2023/04/26 07:16:16;;;;;;;5.18;1.80;;;14.20;99.90;;;;;;5052698;28;20045;-70
2023/04/26 07:18:42;;;;;;;6.22;2.30;;;14.10;96.30;;;;;;5053479;28;20040;-70
2023/04/26 07:21:08;;;;;;;2.65;2.10;;;14.10;98.80;;;;;;5053927;28;20124;-71
2023/04/26 07:23:34;;;;;;;4.78;2.00;;;13.60;99.90;;;;;;5053259;28;20052;-70
2023/04/26 07:26:00;;;;;;;2.35;1.92;;;14.10;99.90;;;;;;5053561;28;20056;-70
2023/04/26 07:28:26;;;;;;;2.83;1.77;;;14.30;99.90;;;;;;5085700;28;20066;-70
2023/04/26 07:30:53;;;;;;;4.18;2.13;;;13.70;97.60;;;;;;5052523;28;20098;-70
2023/04/26 07:33:19;;;;;;;2.35;1.55;;;13.40;96.90;;;;;;5053732;28;20052;-70
2023/04/26 07:35:53;;;;;;;7.22;2.20;;;13.00;94.40;;;;;;5053250;28;20048;-70
2023/04/26 07:38:18;;;;;;;6.70;2.17;;;12.60;96.60;;;;;;5053232;28;20474;-70
2023/04/26 07:40:44;;;;;;;3.92;1.98;;;12.60;99.90;;;;;;5053657;28;20057;-70
2023/04/26 07:43:10;;;;;;;4.55;1.65;;;12.90;97.30;;;;;;5052950;28;20470;-70
2023/04/26 07:45:35;;;;;;;4.00;2.35;;;13.70;96.50;;;;;;5053136;28;20409;-71
2023/04/26 07:48:01;;;;;;;4.70;1.98;;;13.60;95.40;;;;;;5051489;28;20037;-70
2023/04/26 07:50:27;;;;;;;3.75;2.10;;;13.90;98.60;;;;;;5052718;28;20053;-70
2023/04/26 07:52:52;;;;;;;4.40;2.30;;;14.20;95.50;;;;;;5052928;28;20041;-70
2023/04/26 07:55:18;;;;;;;6.30;3.00;;;14.60;97.70;;;;;;5052908;28;20045;-71
2023/04/26 07:57:44;;;;;;;3.88;2.35;;;14.70;94.90;;;;;;5053433;28;20043;-70
2023/04/26 08:00:10;;;;;;;5.65;2.15;;;15.30;95.40;;;;;;5052951;28;20102;-71
2023/04/26 08:02:36;;;;;;;2.75;2.17;;;15.40;91.70;;;;;;5053244;28;20045;-70
2023/04/26 08:05:02;;;;;;;5.75;2.70;;;15.70;96.20;;;;;;5052656;28;20045;-70
2023/04/26 08:07:27;;;;;;;2.92;1.95;;;15.90;94.20;;;;;;5052657;28;20098;-70
2023/04/26 08:09:53;;;;;;;6.10;2.53;;;15.80;94.10;;;;;;5051544;28;20446;-70
2023/04/26 08:12:19;;;;;;;5.82;2.17;;;15.40;92.60;;;;;;5053101;28;20052;-70
2023/04/26 08:14:45;;;;;;;4.90;2.00;;;15.60;95.80;;;;;;5053135;28;20049;-70
2023/04/26 08:17:11;;;;;;;5.07;2.13;;;15.40;95.40;;;;;;5051351;28;20041;-70
2023/04/26 08:19:37;;;;;;;3.72;1.80;;;15.70;95.20;;;;;;5052742;28;20045;-70
2023/04/26 08:22:03;;;;;;;3.58;2.55;;;15.20;95.10;;;;;;5051765;28;20403;-72
2023/04/26 08:24:28;;;;;;;5.35;2.35;;;14.80;93.60;;;;;;5052595;28;20052;-72
2023/04/26 08:26:54;;;;;;;4.40;1.98;;;14.90;95.30;;;;;;5051583;28;20094;-72
2023/04/26 08:29:22;;;;;;;5.05;1.90;;;14.40;93.20;;;;;;5053042;28;20053;-70
2023/04/26 08:31:47;;;;;;;3.90;2.08;;;14.50;92.10;;;;;;5052400;28;20060;-71
2023/04/26 08:34:13;;;;;;;3.92;2.15;;;14.40;91.20;;;;;;5052354;28;20045;-70
2023/04/26 08:36:44;;;;;;;1.92;1.60;;;14.50;94.20;;;;;;5051562;28;20053;-70
2023/04/26 08:39:13;;;;;;;3.45;2.15;;;14.20;94.70;;;;;;5051116;28;20044;-70
2023/04/26 08:41:53;;;;;;;3.08;1.67;;;14.20;94.30;;;;;;5052298;28;20045;-70
2023/04/26 08:44:25;;;;;;;4.32;2.00;;;14.60;91.20;;;;;;5052261;28;20083;-70
2023/04/26 08:47:05;;;;;;;4.90;1.92;;;13.90;93.00;;;;;;5051146;28;20049;-70
2023/04/26 08:49:34;;;;;;;4.45;3.00;;;13.20;90.70;;;;;;5052444;28;20128;-70
2023/04/26 08:52:01;;;;;;;4.57;2.22;;;12.20;92.90;;;;;;5052296;28;20041;-71
2023/04/26 08:54:27;;;;;;;5.20;2.28;;;11.40;94.10;;;;;;5052160;28;20505;-69
2023/04/26 08:56:57;;;;;;;6.13;1.80;;;11.00;95.50;;;;;;5051905;28;20052;-69
2023/04/26 08:59:23;;;;;;;5.28;2.58;;;10.80;95.10;;;;;;5052779;28;20192;-70
2023/04/26 09:01:49;;;;;;;6.53;2.75;;;10.60;94.60;;;;;;5051922;28;20045;-69
2023/04/26 09:04:15;;;;;;;2.95;1.90;;;10.40;94.10;;;;;;5051956;28;20479;-70
2023/04/26 09:06:42;;;;;;;6.50;3.10;;;10.40;95.00;;;;;;5052225;28;20056;-67
2023/04/26 09:09:10;;;;;;;4.13;2.60;;;10.40;95.70;;;;;;5051957;28;20049;-69
2023/04/26 09:11:55;;;;;;;6.05;2.28;;;10.50;95.50;;;;;;5050791;28;20123;-70
2023/04/26 09:14:21;;;;;;;3.63;2.33;;;10.60;94.80;;;;;;5051623;28;20037;-69
2023/04/26 09:16:47;;;;;;;3.70;2.03;;;10.60;95.50;;;;;;5085011;28;20049;-71
2023/04/26 09:19:12;;;;;;;4.70;2.30;;;10.60;95.00;;;;;;5051160;28;20052;-70
2023/04/26 09:21:46;;;;;;;5.13;2.78;;;10.50;95.90;;;;;;5084065;28;20469;-69
2023/04/26 09:24:12;;;;;;;4.82;2.17;;;10.50;96.10;;;;;;5051749;28;20064;-70
2023/04/26 09:26:39;;;;;;;3.00;2.13;;;10.30;96.90;;;;;;5084135;28;20040;-70
2023/04/26 09:29:16;;;;;;;3.50;2.25;;;10.20;98.40;;;;;;5051622;28;20041;-70
2023/04/26 09:31:45;;;;;;;4.45;2.83;;;9.90;99.90;;;;;;5051644;28;20061;-71
2023/04/26 09:34:12;;;;;;;5.50;3.60;;;9.70;99.90;;;;;;5051982;28;20052;-70
2023/04/26 09:36:49;;;;;;;5.40;2.60;;;9.60;99.90;;;;;;5051827;28;20088;-69
2023/04/26 09:39:30;;;;;;;7.40;2.80;;;9.40;99.90;;;;;;5051606;28;20057;-70
2023/04/26 09:41:56;;;;;;;5.40;2.60;;;9.30;99.90;;;;;;5051817;28;20041;-69
2023/04/26 09:44:23;;;;;;;5.40;2.80;;;9.20;99.90;;;;;;5052057;28;20053;-70
2023/04/26 09:46:58;;;;;;;5.63;3.03;;;9.10;99.90;;;;;;5052846;28;20053;-70
2023/04/26 09:49:45;;;;;;;3.17;2.40;;;9.00;99.90;;;;;;5055245;28;20053;-70
2023/04/26 09:52:11;;;;;;;7.20;3.00;;;9.00;99.90;;;;;;5055422;28;20465;-70
2023/04/26 09:54:53;;;;;;;4.65;3.70;;;8.90;99.90;;;;;;5055105;28;20045;-70
2023/04/26 09:57:21;;;;;;;5.15;2.70;;;9.00;99.90;;;;;;5055535;28;20045;-69
2023/04/26 09:59:55;;;;;;;3.28;2.65;;;9.00;99.90;;;;;;5053751;28;20069;-69
2023/04/26 10:02:23;;;;;;;3.85;2.90;;;9.10;99.90;;;;;;5054987;28;20505;-69
2023/04/26 10:04:51;;;;;;;8.32;2.97;;;9.10;99.90;;;;;;5053566;28;20053;-69
2023/04/26 10:07:19;;;;;;;5.72;2.83;;;9.30;99.90;;;;;;5055305;28;20095;-70
2023/04/26 10:09:45;;;;;;;3.40;2.50;;;9.40;99.90;;;;;;5055351;28;20091;-69
2023/04/26 10:12:13;;;;;;;4.18;2.38;;;9.60;99.90;;;;;;5054683;28;20062;-69
2023/04/26 10:14:40;;;;;;;7.05;2.58;;;9.80;99.90;;;;;;5054405;28;20520;-69
2023/04/26 10:17:06;;;;;;;5.95;2.88;;;9.90;99.90;;;;;;5055131;28;20052;-70
2023/04/26 10:19:36;;;;;;;6.10;3.03;;;10.10;99.70;;;;;;5054857;28;20477;-69
2023/04/26 10:22:12;;;;;;;8.43;2.90;;;10.30;99.40;;;;;;5055047;28;20045;-70
2023/04/26 10:24:38;;;;;;;5.28;2.53;;;10.50;98.70;;;;;;5054384;28;20040;-69
2023/04/26 10:27:04;;;;;;;4.43;2.75;;;10.70;98.60;;;;;;5054258;28;20124;-69
2023/04/26 10:29:55;;;;;;;4.22;2.65;;;11.00;98.80;;;;;;5053547;28;20048;-70
2023/04/26 10:32:21;;;;;;;4.28;2.78;;;11.10;96.70;;;;;;5054495;28;20154;-69
2023/04/26 10:35:20;;;;;;;9.35;3.00;;;11.10;97.50;;;;;;5054036;28;20509;-70
2023/04/26 10:38:01;;;;;;;9.57;2.92;;;11.10;97.50;;;;;;5021118;28;20144;-69
2023/04/26 10:40:38;;;;;;;5.55;3.08;;;11.30;97.40;;;;;;5054292;28;20072;-69
2023/04/26 10:43:13;;;;;;;5.50;2.50;;;11.40;98.00;;;;;;5054503;28;20070;-70
2023/04/26 10:45:43;;;;;;;3.25;2.35;;;11.10;97.40;;;;;;5054273;28;20048;-69
2023/04/26 10:48:20;;;;;;;6.03;2.83;;;11.10;98.00;;;;;;5054056;28;20041;-69
2023/04/26 10:50:59;;;;;;;6.75;3.17;;;10.80;97.40;;;;;;5054567;28;20118;-70
2023/04/26 10:53:25;;;;;;;6.72;2.97;;;10.60;98.00;;;;;;5054654;28;20057;-70
2023/04/26 10:55:51;;;;;;;4.78;2.88;;;10.40;98.60;;;;;;5054229;28;20122;-69
2023/04/26 10:58:29;;;;;;;3.58;2.08;;;10.20;98.30;;;;;;5053536;28;20474;-70
2023/04/26 11:01:12;;;;;;;4.95;2.95;;;9.90;98.10;;;;;;5054267;28;20149;-69
2023/04/26 11:03:39;;;;;;;7.57;2.72;;;9.80;99.90;;;;;;5053951;28;20470;-70
2023/04/26 11:06:14;;;;;;;3.83;2.63;;;9.70;99.90;;;;;;5054152;28;20484;-69
2023/04/26 11:08:40;;;;;;;9.13;3.13;;;9.40;99.90;;;;;;5053950;28;20041;-70
2023/04/26 11:11:10;;;;;;;5.22;2.67;;;9.40;99.90;;;;;;5052938;28;20611;-69
2023/04/26 11:13:42;;;;;;;3.75;2.00;;;9.40;99.90;;;;;;5053595;28;20064;-69
2023/04/26 11:16:13;;;;;;;4.35;2.80;;;9.60;99.90;;;;;;5052915;28;20056;-69
2023/04/26 11:18:41;;;;;;;6.68;3.03;;;9.70;99.90;;;;;;5053915;28;20041;-68
2023/04/26 11:21:07;;;;;;;4.82;2.83;;;9.70;99.90;;;;;;5085960;28;20053;-69
2023/04/26 11:23:34;;;;;;;4.85;2.78;;;9.80;99.90;;;;;;5053931;28;20048;-69
2023/04/26 11:26:02;;;;;;;4.10;2.75;;;9.90;99.90;;;;;;5053407;28;20053;-71
2023/04/26 11:28:31;;;;;;;3.17;2.45;;;9.90;99.90;;;;;;5053568;28;20045;-70
2023/04/26 11:30:58;;;;;;;4.72;2.30;;;9.90;99.90;;;;;;5053005;28;20055;-70
2023/04/26 11:33:23;;;;;;;3.20;2.15;;;9.70;99.90;;;;;;5052417;28;20081;-69
2023/04/26 11:35:54;;;;;;;2.38;1.90;;;9.60;99.90;;;;;;5053298;28;20084;-70
2023/04/26 11:38:24;;;;;;;3.38;2.40;;;9.30;99.90;;;;;;5052342;28;20052;-70
2023/04/26 11:40:56;;;;;;;3.42;2.00;;;9.10;99.90;;;;;;5053131;28;20051;-69
2023/04/26 11:43:28;;;;;;;2.63;1.80;;;8.90;99.90;;;;;;5053752;28;20166;-69
2023/04/26 11:46:01;;;;;;;3.58;2.08;;;8.90;99.90;;;;;;5052736;28;20049;-69
2023/04/26 11:48:28;;;;;;;4.95;2.80;;;8.90;99.90;;;;;;5053072;28;20055;-69
2023/04/26 11:50:57;;;;;;;7.45;2.40;;;8.90;99.90;;;;;;5052909;28;20045;-70
2023/04/26 11:53:23;;;;;;;3.33;2.20;;;8.80;99.90;;;;;;5052814;28;20049;-69
2023/04/26 11:55:50;;;;;;;4.88;2.67;;;8.90;99.90;;;;;;5052933;28;20057;-69
2023/04/26 11:58:16;;;;;;;4.57;2.53;;;8.90;99.90;;;;;;5035462;28;20060;-69
2023/04/26 12:00:59;;;;;;;2.53;2.20;;;9.10;99.90;;;;;;5053078;28;20041;-70
2023/04/26 12:03:34;;;;;;;2.38;2.17;;;9.30;99.90;;;;;;5053342;28;20525;-69
2023/04/26 12:06:00;;;;;;;5.93;2.55;;;9.50;99.90;;;;;;5052690;28;20463;-69
2023/04/26 12:08:26;;;;;;;4.15;2.70;;;9.70;99.90;;;;;;5052717;28;20054;-70
2023/04/26 12:10:52;;;;;;;7.43;2.70;;;9.80;99.90;;;;;;5052057;28;20049;-70
2023/04/26 12:13:19;;;;;;;3.83;2.40;;;10.00;99.90;;;;;;5052697;28;20045;-70
2023/04/26 12:15:46;;;;;;;4.07;2.40;;;10.20;99.90;;;;;;5052559;28;20049;-69
2023/04/26 12:18:12;;;;;;;8.95;3.63;;;10.30;99.90;;;;;;5052945;28;20052;-69
2023/04/26 12:20:40;;;;;;;6.03;3.15;;;10.50;99.90;;;;;;5052784;28;20378;-69
2023/04/26 12:23:07;;;;;;;2.88;2.33;;;10.60;99.90;;;;;;5052453;28;20085;-69
2023/04/26 12:25:35;;;;;;;3.15;1.98;;;10.70;99.90;;;;;;5052448;28;20053;-69
2023/04/26 12:28:02;;;;;;;4.85;2.30;;;10.60;99.10;;;;;;5052037;28;20040;-69
2023/04/26 12:30:28;;;;;;;5.68;2.38;;;10.50;98.70;;;;;;5052945;28;20048;-68
2023/04/26 12:32:55;;;;;;;4.03;2.28;;;10.40;99.20;;;;;;5052542;28;20219;-69
2023/04/26 12:35:24;;;;;;;3.40;2.33;;;10.40;98.60;;;;;;5050830;28;20044;-69
2023/04/26 12:37:52;;;;;;;7.55;2.03;;;10.30;97.90;;;;;;5052358;28;20052;-68
2023/04/26 12:40:19;;;;;;;4.43;2.00;;;10.30;97.20;;;;;;5051324;28;20083;-69
2023/04/26 12:42:48;;;;;;;4.00;1.90;;;10.40;95.40;;;;;;5051074;28;20079;-69
2023/04/26 12:45:14;;;;;;;2.92;2.28;;;10.40;96.50;;;;;;5052171;28;20094;-69
2023/04/26 12:47:40;;;;;;;7.80;2.45;;;10.30;94.10;;;;;;5052230;28;20441;-70
2023/04/26 12:50:06;;;;;;;3.72;2.10;;;10.30;95.20;;;;;;5052259;28;20045;-70
2023/04/26 12:52:32;;;;;;;2.83;2.40;;;10.40;95.50;;;;;;5051937;28;20049;-70
2023/04/26 12:54:58;;;;;;;4.80;2.25;;;10.50;96.60;;;;;;5050788;28;20116;-68